createdAt,value
2019-06-07T00:00:52.221Z,14.84
2019-06-07T00:03:28.937Z,14.84
2019-06-07T00:05:52.357Z,14.82
2019-06-07T00:08:28.020Z,14.79
2019-06-07T00:10:52.707Z,14.80
2019-06-07T00:13:21.913Z,14.78
2019-06-07T00:15:51.051Z,14.78
2019-06-07T00:18:25.637Z,14.77
2019-06-07T00:20:51.373Z,14.77
2019-06-07T00:23:22.916Z,14.74
2019-06-07T00:25:51.758Z,14.72
2019-06-07T00:28:20.914Z,14.70
2019-06-07T00:30:52.327Z,14.68
2019-06-07T00:33:24.348Z,14.69
2019-06-07T00:35:52.341Z,14.70
2019-06-07T00:38:21.937Z,14.72
2019-06-07T00:40:52.476Z,14.71
2019-06-07T00:43:27.897Z,14.71
2019-06-07T00:45:52.609Z,14.70
2019-06-07T00:48:30.819Z,14.70
2019-06-07T00:50:52.722Z,14.71
2019-06-07T00:53:31.803Z,14.76
2019-06-07T00:55:52.755Z,14.75
2019-06-07T00:58:27.528Z,14.71
2019-06-07T01:00:54.043Z,14.70
2019-06-07T01:03:25.617Z,14.69
2019-06-07T01:05:54.045Z,14.65
2019-06-07T01:08:28.256Z,14.64
2019-06-07T01:10:55.430Z,14.61
2019-06-07T01:13:26.761Z,14.59
2019-06-07T01:15:56.014Z,14.58
2019-06-07T01:18:37.435Z,14.56
2019-06-07T01:21:02.899Z,14.54
2019-06-07T01:24:05.483Z,14.52
2019-06-07T01:26:04.541Z,14.48
2019-06-07T01:28:34.033Z,14.48
2019-06-07T01:31:03.204Z,14.46
2019-06-07T01:33:50.359Z,14.43
2019-06-07T01:36:06.681Z,14.43
2019-06-07T01:38:35.855Z,14.42
2019-06-07T01:41:05.142Z,14.40
2019-06-07T01:43:34.310Z,14.39
2019-06-07T01:46:05.854Z,14.39
2019-06-07T01:48:49.112Z,14.36
2019-06-07T01:51:05.925Z,14.36
2019-06-07T01:53:35.463Z,14.37
2019-06-07T01:56:07.469Z,14.36
2019-06-07T01:58:36.674Z,14.35
2019-06-07T02:01:05.939Z,14.34
2019-06-07T02:03:37.358Z,14.29
2019-06-07T02:06:06.527Z,14.27
2019-06-07T02:08:35.687Z,14.23
2019-06-07T02:11:04.840Z,14.19
2019-06-07T02:13:36.828Z,14.18
2019-06-07T02:16:09.124Z,14.17
2019-06-07T02:18:57.155Z,14.15
2019-06-07T02:21:09.452Z,14.15
2019-06-07T02:23:38.616Z,14.16
2019-06-07T02:26:08.003Z,14.13
2019-06-07T02:28:45.327Z,14.13
2019-06-07T02:31:08.049Z,14.10
2019-06-07T02:33:40.326Z,14.08
2019-06-07T02:36:08.487Z,14.05
2019-06-07T02:38:38.077Z,14.03
2019-06-07T02:41:07.338Z,14.01
2019-06-07T02:43:37.395Z,14.02
2019-06-07T02:46:28.224Z,14.02
2019-06-07T02:48:43.870Z,14.03
2019-06-07T02:51:13.033Z,14.03
2019-06-07T02:53:42.150Z,14.04
2019-06-07T02:56:37.446Z,14.07
2019-06-07T02:58:42.446Z,14.07
2019-06-07T03:01:11.546Z,14.09
2019-06-07T03:03:41.137Z,14.06
2019-06-07T03:06:12.863Z,14.08
2019-06-07T03:08:42.143Z,14.05
2019-06-07T03:11:12.927Z,14.02
2019-06-07T03:13:42.973Z,13.99
2019-06-07T03:16:13.753Z,13.96
2019-06-07T03:18:59.133Z,13.97
2019-06-07T03:21:29.489Z,13.97
2019-06-07T03:23:59.472Z,13.95
2019-06-07T03:26:31.331Z,13.95
2019-06-07T03:29:00.640Z,13.94
2019-06-07T03:31:35.333Z,13.96
2019-06-07T03:34:01.095Z,13.98
2019-06-07T03:36:32.157Z,13.99
2019-06-07T03:39:01.500Z,13.95
2019-06-07T03:41:36.907Z,13.96
2019-06-07T03:44:05.615Z,13.98
2019-06-07T03:46:39.002Z,13.96
2019-06-07T03:49:06.874Z,13.91
2019-06-07T03:51:39.713Z,13.92
2019-06-07T03:54:07.849Z,13.91
2019-06-07T03:56:38.649Z,13.97
2019-06-07T03:59:07.998Z,13.94
2019-06-07T04:01:39.830Z,13.96
2019-06-07T04:04:08.441Z,13.96
2019-06-07T04:06:41.970Z,13.96
2019-06-07T04:09:09.373Z,14.00
2019-06-07T04:11:40.708Z,14.04
2019-06-07T04:14:09.810Z,14.06
2019-06-07T04:16:44.239Z,14.08
2019-06-07T04:19:09.898Z,14.09
2019-06-07T04:21:42.478Z,14.12
2019-06-07T04:24:10.248Z,14.18
2019-06-07T04:26:43.605Z,14.21
2019-06-07T04:29:33.001Z,14.24
2019-06-07T04:31:42.892Z,14.26
2019-06-07T04:34:12.771Z,14.30
2019-06-07T04:36:56.443Z,14.31
2019-06-07T04:39:13.307Z,14.35
2019-06-07T04:41:43.951Z,14.36
2019-06-07T04:44:13.774Z,14.39
2019-06-07T04:46:44.193Z,14.43
2019-06-07T04:49:13.416Z,14.48
2019-06-07T04:51:43.810Z,14.54
2019-06-07T04:54:12.939Z,14.57
2019-06-07T04:56:44.535Z,14.63
2019-06-07T04:59:13.392Z,14.65
2019-06-07T05:01:42.860Z,14.70
2019-06-07T05:04:12.073Z,14.73
2019-06-07T05:06:42.562Z,14.77
2019-06-07T05:09:11.975Z,14.82
2019-06-07T05:11:44.830Z,14.91
2019-06-07T05:14:14.148Z,14.96
2019-06-07T05:16:44.505Z,15.03
2019-06-07T05:19:13.852Z,15.10
2019-06-07T05:22:02.012Z,15.17
2019-06-07T05:24:13.886Z,15.26
2019-06-07T05:26:43.126Z,15.31
2019-06-07T05:29:12.651Z,15.38
2019-06-07T05:31:45.260Z,15.46
2019-06-07T05:34:12.977Z,15.51
2019-06-07T05:36:44.990Z,15.62
2019-06-07T05:39:13.327Z,15.73
2019-06-07T05:41:44.334Z,15.77
2019-06-07T05:44:15.172Z,15.84
2019-06-07T05:46:47.223Z,15.90
2019-06-07T05:49:15.766Z,15.97
2019-06-07T05:51:45.222Z,16.04
2019-06-07T05:54:14.503Z,16.07
2019-06-07T05:56:45.345Z,16.13
2019-06-07T05:59:14.662Z,16.20
2019-06-07T06:01:53.471Z,16.32
2019-06-07T06:04:14.653Z,16.42
2019-06-07T06:06:47.075Z,16.49
2019-06-07T06:09:14.965Z,16.57
2019-06-07T06:11:58.627Z,16.68
2019-06-07T06:14:15.801Z,16.60
2019-06-07T06:16:47.946Z,16.68
2019-06-07T06:19:16.152Z,16.71
2019-06-07T06:21:46.462Z,16.68
2019-06-07T06:24:15.716Z,16.68
2019-06-07T06:26:51.259Z,16.65
2019-06-07T06:29:16.046Z,16.64
2019-06-07T06:32:36.761Z,16.64
2019-06-07T06:34:16.883Z,16.62
2019-06-07T06:36:47.764Z,16.43
2019-06-07T06:39:17.185Z,16.42
2019-06-07T06:41:58.462Z,16.38
2019-06-07T06:44:17.666Z,16.47
2019-06-07T06:46:56.767Z,16.51
2019-06-07T06:49:17.745Z,16.57
2019-06-07T06:51:52.816Z,16.42
2019-06-07T06:54:39.343Z,16.53
2019-06-07T06:56:52.050Z,16.57
2019-06-07T06:59:38.593Z,16.62
2019-06-07T07:01:52.665Z,16.67
2019-06-07T07:04:21.945Z,16.78
2019-06-07T07:06:53.674Z,16.78
2019-06-07T07:09:22.852Z,16.93
2019-06-07T07:12:09.251Z,16.98
2019-06-07T07:14:23.314Z,17.03
2019-06-07T07:16:56.107Z,16.90
2019-06-07T07:19:24.196Z,16.95
2019-06-07T07:21:55.422Z,17.00
2019-06-07T07:24:24.592Z,16.96
2019-06-07T07:26:57.907Z,17.03
2019-06-07T07:29:24.996Z,17.05
2019-06-07T07:31:59.627Z,17.05
2019-06-07T07:34:35.508Z,17.13
2019-06-07T07:37:00.167Z,17.16
2019-06-07T07:39:29.455Z,17.25
2019-06-07T07:42:17.897Z,17.31
2019-06-07T07:44:29.765Z,17.40
2019-06-07T07:46:59.093Z,17.47
2019-06-07T07:49:28.462Z,17.55
2019-06-07T07:51:59.127Z,17.60
2019-06-07T07:54:28.512Z,17.69
2019-06-07T07:56:57.909Z,17.76
2019-06-07T07:59:41.028Z,17.88
2019-06-07T08:01:58.645Z,17.97
2019-06-07T08:05:12.358Z,18.03
2019-06-07T08:06:59.198Z,18.08
2019-06-07T08:09:28.369Z,18.16
2019-06-07T08:12:00.731Z,18.25
2019-06-07T08:14:28.778Z,18.27
2019-06-07T08:16:59.314Z,18.27
2019-06-07T08:19:29.864Z,18.29
2019-06-07T08:22:01.705Z,18.34
2019-06-07T08:24:29.960Z,18.38
2019-06-07T08:27:24.716Z,18.38
2019-06-07T08:29:44.292Z,18.40
2019-06-07T08:32:01.259Z,18.46
2019-06-07T08:34:31.165Z,18.52
2019-06-07T08:37:02.020Z,18.57
2019-06-07T08:39:31.703Z,18.57
2019-06-07T08:42:15.608Z,18.62
2019-06-07T08:44:32.088Z,18.70
2019-06-07T08:47:18.863Z,18.80
2019-06-07T08:49:34.039Z,18.87
2019-06-07T08:52:11.216Z,18.92
2019-06-07T08:54:36.193Z,18.93
2019-06-07T08:57:19.694Z,18.93
2019-06-07T08:59:36.604Z,18.93
2019-06-07T09:02:22.630Z,18.97
2019-06-07T09:04:37.407Z,19.06
2019-06-07T09:07:18.875Z,19.19
2019-06-07T09:09:37.440Z,19.23
2019-06-07T09:12:10.776Z,19.33
2019-06-07T09:14:58.694Z,19.41
2019-06-07T09:17:12.327Z,19.44
2019-06-07T09:19:39.985Z,19.53
2019-06-07T09:22:11.284Z,19.58
2019-06-07T09:24:40.237Z,19.68
2019-06-07T09:27:10.498Z,19.77
2019-06-07T09:29:40.504Z,19.88
2019-06-07T09:32:15.853Z,19.93
2019-06-07T09:34:40.612Z,19.99
2019-06-07T09:38:02.956Z,19.97
2019-06-07T09:39:40.934Z,20.03
2019-06-07T09:42:12.544Z,20.09
2019-06-07T09:44:41.314Z,20.18
2019-06-07T09:47:30.428Z,20.23
2019-06-07T09:49:41.333Z,20.32
2019-06-07T09:52:11.199Z,20.42
2019-06-07T09:55:05.715Z,20.49
2019-06-07T09:57:17.147Z,20.53
2019-06-07T09:59:42.600Z,20.59
2019-06-07T10:02:13.732Z,20.66
2019-06-07T10:04:42.709Z,20.77
2019-06-07T10:07:30.182Z,20.88
2019-06-07T10:10:09.974Z,20.94
2019-06-07T10:12:13.935Z,21.00
2019-06-07T10:14:45.186Z,21.05
2019-06-07T10:17:14.328Z,21.14
2019-06-07T10:19:43.682Z,21.25
2019-06-07T10:22:13.255Z,21.34
2019-06-07T10:24:44.105Z,21.41
2019-06-07T10:27:13.273Z,21.51
2019-06-07T10:29:42.927Z,21.58
2019-06-07T10:32:16.896Z,21.60
2019-06-07T10:34:46.070Z,21.59
2019-06-07T10:37:19.573Z,21.77
2019-06-07T10:39:51.466Z,21.86
2019-06-07T10:42:20.654Z,22.00
2019-06-07T10:44:50.454Z,22.06
2019-06-07T10:47:19.594Z,22.18
2019-06-07T10:49:52.157Z,22.35
2019-06-07T10:52:41.398Z,22.45
2019-06-07T10:55:14.110Z,22.48
2019-06-07T10:57:52.086Z,22.52
2019-06-07T11:00:21.870Z,22.60
2019-06-07T11:02:54.754Z,22.74
2019-06-07T11:05:21.980Z,22.86
2019-06-07T11:07:51.304Z,23.02
2019-06-07T11:10:20.906Z,23.07
2019-06-07T11:12:50.072Z,23.17
2019-06-07T11:15:19.882Z,23.31
2019-06-07T11:17:49.424Z,23.42
2019-06-07T11:20:18.836Z,23.58
2019-06-07T11:22:48.027Z,23.70
2019-06-07T11:25:18.688Z,23.79
2019-06-07T11:27:48.681Z,23.89
2019-06-07T11:30:18.767Z,23.94
2019-06-07T11:32:48.241Z,24.02
2019-06-07T11:35:19.028Z,24.14
2019-06-07T11:37:48.281Z,24.24
2019-06-07T11:40:30.785Z,24.42
2019-06-07T11:42:48.427Z,24.59
2019-06-07T11:45:18.134Z,24.70
2019-06-07T11:47:49.755Z,24.87
2019-06-07T11:50:25.247Z,24.93
2019-06-07T11:52:54.915Z,25.08
2019-06-07T11:55:24.320Z,25.29
2019-06-07T11:57:58.749Z,25.55
2019-06-07T12:00:28.485Z,25.73
2019-06-07T12:02:57.624Z,25.93
2019-06-07T12:05:26.856Z,26.23
2019-06-07T12:07:57.131Z,26.46
2019-06-07T12:10:34.312Z,26.75
2019-06-07T12:12:59.514Z,27.06
2019-06-07T12:15:29.130Z,27.34
2019-06-07T12:18:11.321Z,27.62
2019-06-07T12:20:40.844Z,27.87
2019-06-07T12:23:10.138Z,28.04
2019-06-07T12:25:39.331Z,28.41
2019-06-07T12:28:08.673Z,28.47
2019-06-07T12:30:38.711Z,28.85
2019-06-07T12:33:08.197Z,29.26
2019-06-07T12:35:37.397Z,29.52
2019-06-07T12:38:06.874Z,29.69
2019-06-07T12:40:36.395Z,30.13
2019-06-07T12:43:05.945Z,30.36
2019-06-07T12:45:44.194Z,30.83
2019-06-07T12:48:09.158Z,31.34
2019-06-07T12:50:43.213Z,31.34
2019-06-07T12:53:09.248Z,32.27
2019-06-07T12:55:38.835Z,32.98
2019-06-07T12:58:07.972Z,32.96
2019-06-07T13:00:37.155Z,33.45
2019-06-07T13:03:06.652Z,32.89
2019-06-07T13:05:35.848Z,33.24
2019-06-07T13:08:07.786Z,33.78
2019-06-07T13:10:37.255Z,34.55
2019-06-07T13:13:06.592Z,34.75
2019-06-07T13:15:36.033Z,35.01
2019-06-07T13:18:08.534Z,34.95
2019-06-07T13:20:37.681Z,35.65
2019-06-07T13:23:06.829Z,35.67
2019-06-07T13:25:46.154Z,36.00
2019-06-07T13:28:08.421Z,36.33
2019-06-07T13:30:37.656Z,37.00
2019-06-07T13:33:08.147Z,37.13
2019-06-07T13:35:37.341Z,37.13
2019-06-07T13:38:07.943Z,37.57
2019-06-07T13:40:37.459Z,37.37
2019-06-07T13:43:06.584Z,37.37
2019-06-07T13:45:35.816Z,38.13
2019-06-07T13:48:08.964Z,38.66
2019-06-07T13:50:41.168Z,38.48
2019-06-07T13:53:10.798Z,39.13
2019-06-07T13:55:40.144Z,39.02
2019-06-07T13:58:09.338Z,39.41
2019-06-07T14:00:38.755Z,39.46
2019-06-07T14:03:07.962Z,40.22
2019-06-07T14:05:37.139Z,40.29
2019-06-07T14:08:07.645Z,38.78
2019-06-07T14:10:36.828Z,37.99
2019-06-07T14:13:05.936Z,38.10
2019-06-07T14:15:35.406Z,39.21
2019-06-07T14:18:07.366Z,39.88
2019-06-07T14:20:36.470Z,39.56
2019-06-07T14:23:43.860Z,40.27
2019-06-07T14:26:15.498Z,40.37
2019-06-07T14:28:45.951Z,39.97
2019-06-07T14:31:17.343Z,40.22
2019-06-07T14:33:46.651Z,40.19
2019-06-07T14:36:15.875Z,39.11
2019-06-07T14:38:44.984Z,39.21
2019-06-07T14:41:14.481Z,40.71
2019-06-07T14:43:43.697Z,41.69
2019-06-07T14:46:12.904Z,41.27
2019-06-07T14:48:42.488Z,41.21
2019-06-07T14:51:11.659Z,41.33
2019-06-07T14:53:40.979Z,40.91
2019-06-07T14:56:10.376Z,41.65
2019-06-07T14:58:43.229Z,41.82
2019-06-07T15:01:10.296Z,40.97
2019-06-07T15:03:39.766Z,40.39
2019-06-07T15:06:10.310Z,38.55
2019-06-07T15:08:39.503Z,39.30
2019-06-07T15:11:08.998Z,38.34
2019-06-07T15:13:39.742Z,38.27
2019-06-07T15:16:09.114Z,36.95
2019-06-07T15:18:39.717Z,37.06
2019-06-07T15:21:08.889Z,36.99
2019-06-07T15:23:39.257Z,38.13
2019-06-07T15:26:08.798Z,37.74
2019-06-07T15:28:38.488Z,37.23
2019-06-07T15:31:07.633Z,37.10
2019-06-07T15:33:38.383Z,36.61
2019-06-07T15:36:08.676Z,36.40
2019-06-07T15:38:39.507Z,35.73
2019-06-07T15:41:11.609Z,35.09
2019-06-07T15:43:40.827Z,35.24
2019-06-07T15:46:10.379Z,34.96
2019-06-07T15:48:40.183Z,34.57
2019-06-07T15:51:09.398Z,33.99
2019-06-07T15:53:44.738Z,33.25
2019-06-07T15:56:13.848Z,32.84
2019-06-07T15:58:43.146Z,32.89
2019-06-07T16:01:12.441Z,32.29
2019-06-07T16:03:42.170Z,31.76
2019-06-07T16:06:11.593Z,31.62
2019-06-07T16:08:42.513Z,31.44
2019-06-07T16:11:11.816Z,31.27
2019-06-07T16:13:42.887Z,31.19
2019-06-07T16:16:17.038Z,30.37
2019-06-07T16:18:46.499Z,30.22
2019-06-07T16:21:18.739Z,30.17
2019-06-07T16:23:50.956Z,29.80
2019-06-07T16:26:20.392Z,29.68
2019-06-07T16:28:51.099Z,29.65
2019-06-07T16:31:20.269Z,29.43
2019-06-07T16:33:49.849Z,28.99
2019-06-07T16:36:19.080Z,28.67
2019-06-07T16:38:48.603Z,28.58
2019-06-07T16:41:19.173Z,28.27
2019-06-07T16:43:49.006Z,28.04
2019-06-07T16:46:18.196Z,28.20
2019-06-07T16:48:49.125Z,28.07
2019-06-07T16:51:18.275Z,27.73
2019-06-07T16:53:48.583Z,27.39
2019-06-07T16:56:18.078Z,27.22
2019-06-07T16:58:48.580Z,26.84
2019-06-07T17:01:17.968Z,26.41
2019-06-07T17:03:47.657Z,25.89
2019-06-07T17:06:16.818Z,25.73
2019-06-07T17:08:48.197Z,25.22
2019-06-07T17:11:20.889Z,24.68
2019-06-07T17:13:50.037Z,24.21
2019-06-07T17:16:19.546Z,24.19
2019-06-07T17:18:49.300Z,23.96
2019-06-07T17:21:22.221Z,23.62
2019-06-07T17:23:51.461Z,23.24
2019-06-07T17:26:23.652Z,23.28
2019-06-07T17:28:52.823Z,23.32
2019-06-07T17:31:22.046Z,23.44
2019-06-07T17:33:51.223Z,23.50
2019-06-07T17:36:20.354Z,23.30
2019-06-07T17:38:50.679Z,23.28
2019-06-07T17:41:19.978Z,23.31
2019-06-07T17:43:58.488Z,23.38
2019-06-07T17:46:21.366Z,22.81
2019-06-07T17:48:51.670Z,22.73
2019-06-07T17:51:20.854Z,22.70
2019-06-07T17:53:52.070Z,22.85
2019-06-07T17:56:21.349Z,22.92
2019-06-07T17:58:50.587Z,22.83
2019-06-07T18:01:19.803Z,22.80
2019-06-07T18:03:49.205Z,22.41
2019-06-07T18:06:18.926Z,22.22
2019-06-07T18:08:49.455Z,22.04
2019-06-07T18:11:18.608Z,21.96
2019-06-07T18:13:48.334Z,21.96
2019-06-07T18:16:18.710Z,22.05
2019-06-07T18:18:48.602Z,21.87
2019-06-07T18:21:18.052Z,21.63
2019-06-07T18:23:48.270Z,21.58
2019-06-07T18:26:17.504Z,21.48
2019-06-07T18:28:52.681Z,21.48
2019-06-07T18:31:22.251Z,21.34
2019-06-07T18:33:51.421Z,21.22
2019-06-07T18:36:21.069Z,21.08
2019-06-07T18:38:50.916Z,20.97
2019-06-07T18:41:20.190Z,21.05
2019-06-07T18:43:51.035Z,21.31
2019-06-07T18:46:21.516Z,21.11
2019-06-07T18:48:51.026Z,21.07
2019-06-07T18:51:20.747Z,20.53
2019-06-07T18:53:55.793Z,20.69
2019-06-07T18:56:25.352Z,20.91
2019-06-07T18:58:55.339Z,21.05
2019-06-07T19:01:25.058Z,21.19
2019-06-07T19:03:54.513Z,21.25
2019-06-07T19:06:25.474Z,21.34
2019-06-07T19:08:56.964Z,21.41
2019-06-07T19:11:29.136Z,21.05
2019-06-07T19:13:59.319Z,21.04
2019-06-07T19:16:29.450Z,20.89
2019-06-07T19:18:59.907Z,20.95
2019-06-07T19:21:32.289Z,21.09
2019-06-07T19:24:00.934Z,21.05
2019-06-07T19:26:30.358Z,21.13
2019-06-07T19:29:00.925Z,21.08
2019-06-07T19:31:30.382Z,21.03
2019-06-07T19:33:59.889Z,21.05
2019-06-07T19:36:48.351Z,20.91
2019-06-07T19:39:09.953Z,20.95
2019-06-07T19:41:39.860Z,20.97
2019-06-07T19:44:09.338Z,20.82
2019-06-07T19:46:41.205Z,21.01
2019-06-07T19:49:13.326Z,20.76
2019-06-07T19:51:42.770Z,20.95
2019-06-07T19:54:12.594Z,21.13
2019-06-07T19:56:42.317Z,21.05
2019-06-07T19:59:11.837Z,20.94
2019-06-07T20:01:42.123Z,20.79
2019-06-07T20:04:13.155Z,20.77
2019-06-07T20:06:43.794Z,20.27
2019-06-07T20:09:13.201Z,20.33
2019-06-07T20:11:44.520Z,20.29
2019-06-07T20:14:18.886Z,20.45
2019-06-07T20:16:47.545Z,20.52
2019-06-07T20:19:20.191Z,20.55
2019-06-07T20:21:51.031Z,20.70
2019-06-07T20:24:26.968Z,20.73
2019-06-07T20:26:51.389Z,20.69
2019-06-07T20:29:25.825Z,20.52
2019-06-07T20:31:51.989Z,20.65
2019-06-07T20:34:22.035Z,20.03
2019-06-07T20:36:52.821Z,19.97
2019-06-07T20:39:22.012Z,20.12
2019-06-07T20:42:01.349Z,20.10
2019-06-07T20:44:30.461Z,19.77
2019-06-07T20:46:59.960Z,19.72
2019-06-07T20:49:32.507Z,19.77
2019-06-07T20:52:04.855Z,19.92
2019-06-07T20:54:34.068Z,19.94
2019-06-07T20:57:04.655Z,19.67
2019-06-07T20:59:33.937Z,19.61
2019-06-07T21:02:07.098Z,19.77
2019-06-07T21:04:36.365Z,19.81
2019-06-07T21:07:05.824Z,19.83
2019-06-07T21:09:35.016Z,19.69
2019-06-07T21:12:07.929Z,19.58
2019-06-07T21:14:37.549Z,19.43
2019-06-07T21:17:06.674Z,19.41
2019-06-07T21:19:35.824Z,19.50
2019-06-07T21:22:08.934Z,19.62
2019-06-07T21:24:40.426Z,19.59
2019-06-07T21:27:35.397Z,19.43
2019-06-07T21:30:07.261Z,19.51
2019-06-07T21:32:36.870Z,19.49
2019-06-07T21:35:08.009Z,19.62
2019-06-07T21:37:38.229Z,19.56
2019-06-07T21:40:10.168Z,19.63
2019-06-07T21:42:39.862Z,19.65
2019-06-07T21:45:11.883Z,19.78
2019-06-07T21:47:47.927Z,19.74
2019-06-07T21:50:25.107Z,19.63
2019-06-07T21:53:20.029Z,19.72
2019-06-07T21:55:58.733Z,19.74
2019-06-07T21:58:36.215Z,19.61
2019-06-07T22:01:15.122Z,19.59
2019-06-07T22:03:44.915Z,19.14
2019-06-07T22:06:14.443Z,19.32
2019-06-07T22:08:51.220Z,19.44
2019-06-07T22:11:24.533Z,19.36
2019-06-07T22:13:54.663Z,19.35
2019-06-07T22:16:29.257Z,19.27
2019-06-07T22:18:56.236Z,19.21
2019-06-07T22:21:26.030Z,19.35
2019-06-07T22:23:55.646Z,19.28
2019-06-07T22:26:25.173Z,19.21
2019-06-07T22:28:54.710Z,19.09
2019-06-07T22:31:24.426Z,19.10
2019-06-07T22:33:54.774Z,19.04
2019-06-07T22:36:24.473Z,18.93
2019-06-07T22:38:53.754Z,19.03
2019-06-07T22:41:22.858Z,19.02
2019-06-07T22:43:52.061Z,19.20
2019-06-07T22:46:36.352Z,18.80
2019-06-07T22:48:52.119Z,18.92
2019-06-07T22:51:21.298Z,19.05
2019-06-07T22:53:51.300Z,18.73
2019-06-07T22:56:39.733Z,18.81
2019-06-07T22:59:12.339Z,18.91
2019-06-07T23:01:39.712Z,18.98
2019-06-07T23:04:08.917Z,18.72
2019-06-07T23:06:38.053Z,18.80
2019-06-07T23:09:08.787Z,18.61
2019-06-07T23:11:37.934Z,18.73
2019-06-07T23:14:07.082Z,18.52
2019-06-07T23:16:54.009Z,18.53
2019-06-07T23:19:07.035Z,18.63
2019-06-07T23:21:36.210Z,18.52
2019-06-07T23:24:08.209Z,18.65
2019-06-07T23:26:37.837Z,18.61
2019-06-07T23:29:06.981Z,18.68
2019-06-07T23:31:36.148Z,18.67
2019-06-07T23:34:08.349Z,18.51
2019-06-07T23:36:37.439Z,18.50
2019-06-07T23:39:07.999Z,18.42
2019-06-07T23:41:37.455Z,18.51
2019-06-07T23:44:06.568Z,18.43
2019-06-07T23:46:35.771Z,18.43
2019-06-07T23:49:04.888Z,18.17
2019-06-07T23:51:34.015Z,18.25
2019-06-07T23:54:04.306Z,18.28
2019-06-07T23:56:34.692Z,18.16
2019-06-07T23:59:04.038Z,18.28
